createdAt,value
2018-05-17T00:00:20.873Z,63.06
2018-05-17T00:00:47.040Z,63.64
2018-05-17T00:01:13.200Z,64.69
2018-05-17T00:01:39.478Z,64.22
2018-05-17T00:02:05.922Z,63.83
2018-05-17T00:02:32.411Z,63.26
2018-05-17T00:02:58.813Z,63.54
2018-05-17T00:03:25.204Z,62.97
2018-05-17T00:03:51.336Z,63.35
2018-05-17T00:04:17.494Z,63.83
2018-05-17T00:04:43.634Z,63.54
2018-05-17T00:05:09.807Z,63.73
2018-05-17T00:05:35.997Z,63.73
2018-05-17T00:06:02.230Z,63.73
2018-05-17T00:06:28.489Z,63.73
2018-05-17T00:06:54.830Z,64.31
2018-05-17T00:07:21.172Z,64.59
2018-05-17T00:07:47.285Z,64.12
2018-05-17T00:08:13.424Z,63.83
2018-05-17T00:08:39.558Z,63.73
2018-05-17T00:09:05.732Z,64.12
2018-05-17T00:09:31.986Z,64.59
2018-05-17T00:09:58.152Z,63.93
2018-05-17T00:10:24.732Z,64.12
2018-05-17T00:10:50.836Z,64.5
2018-05-17T00:11:16.992Z,64.59
2018-05-17T00:11:43.154Z,63.83
2018-05-17T00:12:09.330Z,64.02
2018-05-17T00:12:35.492Z,63.73
2018-05-17T00:13:01.635Z,63.73
2018-05-17T00:13:27.790Z,64.98
2018-05-17T00:13:53.930Z,64.02
2018-05-17T00:14:20.063Z,64.88
2018-05-17T00:14:46.205Z,65.45
2018-05-17T00:15:12.352Z,64.88
2018-05-17T00:15:38.479Z,65.45
2018-05-17T00:16:04.621Z,65.84
2018-05-17T00:16:30.762Z,65.55
2018-05-17T00:16:56.939Z,65.55
2018-05-17T00:17:23.074Z,64.69
2018-05-17T00:17:49.213Z,64.69
2018-05-17T00:18:15.345Z,65.45
2018-05-17T00:18:41.510Z,65.26
2018-05-17T00:19:07.648Z,64.69
2018-05-17T00:19:33.783Z,64.88
2018-05-17T00:19:59.950Z,64.79
2018-05-17T00:20:26.080Z,65.55
2018-05-17T00:20:52.246Z,64.69
2018-05-17T00:21:18.381Z,64.59
2018-05-17T00:21:44.523Z,65.08
2018-05-17T00:22:10.659Z,64.98
2018-05-17T00:22:36.805Z,64.88
2018-05-17T00:23:02.944Z,64.69
2018-05-17T00:23:29.102Z,64.59
2018-05-17T00:23:55.267Z,65.74
2018-05-17T00:24:21.412Z,65.17
2018-05-17T00:24:47.546Z,65.36
2018-05-17T00:25:13.684Z,65.26
2018-05-17T00:25:39.836Z,65.45
2018-05-17T00:26:05.977Z,65.55
2018-05-17T00:26:32.108Z,64.88
2018-05-17T00:26:58.261Z,65.08
2018-05-17T00:27:24.399Z,65.65
2018-05-17T00:27:50.539Z,65.55
2018-05-17T00:28:16.673Z,65.74
2018-05-17T00:28:42.841Z,65.45
2018-05-17T00:29:08.979Z,65.26
2018-05-17T00:29:35.143Z,65.55
2018-05-17T00:30:01.286Z,65.74
2018-05-17T00:30:27.426Z,66.51
2018-05-17T00:30:53.567Z,66.41
2018-05-17T00:31:19.703Z,65.74
2018-05-17T00:31:45.839Z,64.98
2018-05-17T00:32:11.980Z,64.79
2018-05-17T00:32:38.129Z,65.33
2018-05-17T00:33:04.288Z,65.9
2018-05-17T00:33:30.424Z,66.19
2018-05-17T00:33:56.615Z,66.19
2018-05-17T00:34:22.749Z,67.18
2018-05-17T00:34:48.889Z,66.8
2018-05-17T00:35:15.058Z,66.61
2018-05-17T00:35:41.238Z,66.51
2018-05-17T00:36:07.334Z,65.74
2018-05-17T00:36:33.470Z,65.74
2018-05-17T00:36:59.630Z,65.84
2018-05-17T00:37:25.799Z,65.94
2018-05-17T00:37:51.941Z,66.13
2018-05-17T00:38:18.096Z,65.74
2018-05-17T00:38:44.239Z,66.13
2018-05-17T00:39:10.377Z,66.13
2018-05-17T00:39:36.505Z,65.55
2018-05-17T00:40:02.644Z,65.45
2018-05-17T00:40:28.802Z,65.45
2018-05-17T00:40:54.953Z,65.33
2018-05-17T00:41:21.089Z,65.26
2018-05-17T00:41:47.231Z,65.23
2018-05-17T00:42:13.364Z,65.84
2018-05-17T00:42:39.504Z,65.9
2018-05-17T00:43:05.662Z,66
2018-05-17T00:43:31.801Z,65.52
2018-05-17T00:43:57.950Z,65.9
2018-05-17T00:44:24.079Z,65.81
2018-05-17T00:44:50.218Z,65.9
2018-05-17T00:45:16.361Z,66.47
2018-05-17T00:45:42.496Z,66.09
2018-05-17T00:46:08.634Z,66.09
2018-05-17T00:46:34.796Z,66.19
2018-05-17T00:47:00.956Z,66.38
2018-05-17T00:47:27.102Z,66.86
2018-05-17T00:47:53.238Z,66.86
2018-05-17T00:48:19.393Z,66.76
2018-05-17T00:48:45.540Z,66.96
2018-05-17T00:49:11.673Z,66.47
2018-05-17T00:49:37.807Z,66.38
2018-05-17T00:50:03.953Z,66.09
2018-05-17T00:50:30.086Z,66.28
2018-05-17T00:50:56.230Z,66.28
2018-05-17T00:51:22.395Z,65.9
2018-05-17T00:51:48.558Z,66.09
2018-05-17T00:52:14.699Z,66.28
2018-05-17T00:52:40.884Z,66.28
2018-05-17T00:53:07.101Z,66.19
2018-05-17T00:53:33.241Z,66.19
2018-05-17T00:53:59.377Z,66.09
2018-05-17T00:54:25.514Z,66.28
2018-05-17T00:54:51.653Z,66
2018-05-17T00:55:17.791Z,65.71
2018-05-17T00:55:43.933Z,66.19
2018-05-17T00:56:10.073Z,66.09
2018-05-17T00:56:36.215Z,66.19
2018-05-17T00:57:02.345Z,66.09
2018-05-17T00:57:28.508Z,66.28
2018-05-17T00:57:54.677Z,66.09
2018-05-17T00:58:20.818Z,66.47
2018-05-17T00:58:46.953Z,66.09
2018-05-17T00:59:13.115Z,65.71
2018-05-17T00:59:39.275Z,65.61
2018-05-17T01:00:05.410Z,66.47
2018-05-17T01:00:31.553Z,66.86
2018-05-17T01:00:57.688Z,66.09
2018-05-17T01:01:23.825Z,66.19
2018-05-17T01:01:49.979Z,66.09
2018-05-17T01:02:16.112Z,67.34
2018-05-17T01:02:42.257Z,67.53
2018-05-17T01:03:08.394Z,66.67
2018-05-17T01:03:34.572Z,67.24
2018-05-17T01:04:00.706Z,66.96
2018-05-17T01:04:26.843Z,67.05
2018-05-17T01:04:52.986Z,66.76
2018-05-17T01:05:19.123Z,66.19
2018-05-17T01:05:45.255Z,66.19
2018-05-17T01:06:11.415Z,66.09
2018-05-17T01:06:37.550Z,66.19
2018-05-17T01:07:03.691Z,66.19
2018-05-17T01:07:29.831Z,66.19
2018-05-17T01:07:55.968Z,66.19
2018-05-17T01:08:22.099Z,66.19
2018-05-17T01:08:48.242Z,66
2018-05-17T01:09:14.380Z,66.19
2018-05-17T01:09:40.601Z,66.19
2018-05-17T01:10:06.660Z,66.19
2018-05-17T01:10:32.821Z,66.47
2018-05-17T01:10:58.969Z,67.63
2018-05-17T01:11:25.127Z,66.96
2018-05-17T01:11:51.293Z,66.67
2018-05-17T01:12:17.430Z,66.86
2018-05-17T01:12:43.603Z,67.53
2018-05-17T01:13:09.766Z,67.43
2018-05-17T01:13:35.935Z,67.14
2018-05-17T01:14:02.079Z,67.34
2018-05-17T01:14:28.209Z,67.63
2018-05-17T01:14:54.418Z,67.34
2018-05-17T01:15:20.510Z,67.43
2018-05-17T01:15:46.685Z,67.53
2018-05-17T01:16:12.844Z,67.34
2018-05-17T01:16:38.984Z,67.34
2018-05-17T01:17:05.121Z,67.34
2018-05-17T01:17:31.257Z,68.01
2018-05-17T01:17:57.387Z,68.01
2018-05-17T01:18:23.535Z,68.29
2018-05-17T01:18:49.672Z,68.39
2018-05-17T01:19:15.833Z,68.96
2018-05-17T01:19:41.989Z,68.77
2018-05-17T01:20:08.122Z,68.29
2018-05-17T01:20:34.259Z,68.01
2018-05-17T01:21:00.394Z,67.63
2018-05-17T01:21:26.559Z,67.82
2018-05-17T01:21:52.695Z,67.91
2018-05-17T01:22:18.861Z,67.82
2018-05-17T01:22:45.021Z,68.01
2018-05-17T01:23:11.181Z,68.29
2018-05-17T01:23:37.327Z,68.1
2018-05-17T01:24:03.486Z,68.01
2018-05-17T01:24:29.627Z,68.01
2018-05-17T01:24:55.786Z,67.91
2018-05-17T01:25:21.925Z,68.29
2018-05-17T01:25:48.060Z,68.01
2018-05-17T01:26:14.222Z,68.2
2018-05-17T01:26:40.368Z,68.2
2018-05-17T01:27:06.507Z,67.91
2018-05-17T01:27:32.647Z,68.01
2018-05-17T01:27:58.803Z,68.01
2018-05-17T01:28:25.019Z,68.01
2018-05-17T01:28:51.088Z,68.39
2018-05-17T01:29:17.244Z,67.91
2018-05-17T01:29:43.383Z,68.1
2018-05-17T01:30:09.521Z,67.34
2018-05-17T01:30:35.685Z,67.63
2018-05-17T01:31:01.821Z,67.53
2018-05-17T01:31:27.957Z,68.1
2018-05-17T01:31:54.118Z,68.39
2018-05-17T01:32:20.261Z,68.01
2018-05-17T01:32:46.395Z,68.01
2018-05-17T01:33:12.535Z,68.1
2018-05-17T01:33:38.700Z,68.29
2018-05-17T01:34:04.838Z,68.1
2018-05-17T01:34:30.976Z,68.1
2018-05-17T01:34:57.147Z,68.1
2018-05-17T01:35:23.282Z,68.1
2018-05-17T01:35:49.435Z,68.29
2018-05-17T01:36:15.570Z,68.2
2018-05-17T01:36:41.713Z,68.49
2018-05-17T01:37:07.848Z,68.96
2018-05-17T01:37:33.990Z,68.96
2018-05-17T01:38:00.129Z,68.68
2018-05-17T01:38:26.272Z,68.1
2018-05-17T01:38:52.413Z,68.1
2018-05-17T01:39:18.552Z,68.01
2018-05-17T01:39:44.694Z,68.1
2018-05-17T01:40:10.833Z,68.49
2018-05-17T01:40:36.960Z,68.01
2018-05-17T01:41:03.128Z,68.1
2018-05-17T01:41:29.299Z,68.39
2018-05-17T01:41:55.440Z,68.1
2018-05-17T01:42:21.584Z,68.1
2018-05-17T01:42:47.715Z,68.1
2018-05-17T01:43:13.897Z,68.2
2018-05-17T01:43:40.027Z,68.1
2018-05-17T01:44:06.163Z,68.01
2018-05-17T01:44:32.324Z,68.2
2018-05-17T01:44:58.461Z,68.01
2018-05-17T01:45:24.628Z,68.01
2018-05-17T01:45:50.761Z,68.29
2018-05-17T01:46:16.905Z,67.91
2018-05-17T01:46:43.056Z,68.77
2018-05-17T01:47:09.201Z,68.77
2018-05-17T01:47:35.366Z,69.06
2018-05-17T01:48:01.503Z,68.87
2018-05-17T01:48:27.630Z,67.91
2018-05-17T01:48:53.775Z,68.01
2018-05-17T01:49:19.911Z,68.2
2018-05-17T01:49:46.076Z,67.82
2018-05-17T01:50:12.211Z,68.29
2018-05-17T01:50:38.356Z,68.39
2018-05-17T01:51:04.486Z,68.01
2018-05-17T01:51:30.645Z,68.01
2018-05-17T01:51:56.788Z,68.39
2018-05-17T01:52:22.957Z,68.2
2018-05-17T01:52:49.114Z,68.2
2018-05-17T01:53:15.267Z,68.07
2018-05-17T01:53:41.431Z,68.29
2018-05-17T01:54:07.563Z,68.07
2018-05-17T01:54:33.704Z,68.74
2018-05-17T01:54:59.842Z,68.45
2018-05-17T01:55:26.000Z,68.74
2018-05-17T01:55:52.141Z,67.97
2018-05-17T01:56:18.278Z,68.16
2018-05-17T01:56:44.413Z,68.16
2018-05-17T01:57:10.552Z,68.07
2018-05-17T01:57:36.688Z,67.97
2018-05-17T01:58:02.822Z,68.07
2018-05-17T01:58:28.962Z,68.07
2018-05-17T01:58:55.100Z,68.16
2018-05-17T01:59:21.239Z,68.35
2018-05-17T01:59:47.373Z,68.07
2018-05-17T02:00:13.599Z,68.74
2018-05-17T02:00:39.641Z,68.77
2018-05-17T02:01:05.803Z,68.45
2018-05-17T02:01:31.940Z,68.16
2018-05-17T02:01:58.084Z,68.74
2018-05-17T02:02:24.222Z,68.26
2018-05-17T02:02:50.377Z,67.78
2018-05-17T02:03:16.515Z,67.4
2018-05-17T02:03:42.654Z,67.11
2018-05-17T02:04:08.819Z,67.3
2018-05-17T02:04:34.959Z,67.3
2018-05-17T02:05:01.102Z,67.4
2018-05-17T02:05:27.278Z,67.21
2018-05-17T02:05:53.421Z,67.21
2018-05-17T02:06:19.547Z,67.4
2018-05-17T02:06:45.686Z,67.49
2018-05-17T02:07:11.828Z,68.74
2018-05-17T02:07:37.961Z,68.64
2018-05-17T02:08:04.097Z,67.97
2018-05-17T02:08:30.240Z,68.07
2018-05-17T02:08:56.398Z,68.16
2018-05-17T02:09:22.528Z,68.26
2018-05-17T02:09:48.697Z,67.97
2018-05-17T02:10:14.853Z,68.16
2018-05-17T02:10:40.996Z,68.64
2018-05-17T02:11:07.135Z,68.74
2018-05-17T02:11:33.270Z,67.97
2018-05-17T02:11:59.407Z,68.16
2018-05-17T02:12:25.557Z,68.16
2018-05-17T02:12:51.715Z,68.07
2018-05-17T02:13:17.850Z,68.16
2018-05-17T02:13:44.013Z,68.35
2018-05-17T02:14:10.154Z,67.88
2018-05-17T02:14:36.303Z,68.26
2018-05-17T02:15:02.465Z,67.88
2018-05-17T02:15:28.621Z,68.07
2018-05-17T02:15:54.781Z,68.35
2018-05-17T02:16:20.923Z,68.35
2018-05-17T02:16:47.056Z,68.16
2018-05-17T02:17:13.189Z,68.35
2018-05-17T02:17:39.329Z,68.07
2018-05-17T02:18:05.462Z,67.69
2018-05-17T02:18:31.602Z,67.97
2018-05-17T02:18:57.740Z,68.35
2018-05-17T02:19:23.879Z,67.97
2018-05-17T02:19:50.044Z,68.45
2018-05-17T02:20:16.175Z,68.45
2018-05-17T02:20:42.307Z,68.74
2018-05-17T02:21:08.476Z,68.07
2018-05-17T02:21:34.607Z,67.97
2018-05-17T02:22:00.750Z,68.35
2018-05-17T02:22:26.901Z,68.74
2018-05-17T02:22:53.038Z,68.16
2018-05-17T02:23:19.179Z,67.97
2018-05-17T02:23:45.317Z,68.07
2018-05-17T02:24:11.461Z,68.16
2018-05-17T02:24:37.596Z,68.35
2018-05-17T02:25:03.743Z,68.35
2018-05-17T02:25:29.875Z,67.97
2018-05-17T02:25:56.014Z,67.88
2018-05-17T02:26:22.141Z,68.35
2018-05-17T02:26:48.279Z,68.16
2018-05-17T02:27:14.439Z,68.07
2018-05-17T02:27:40.586Z,68.07
2018-05-17T02:28:06.717Z,68.35
2018-05-17T02:28:32.859Z,68.35
2018-05-17T02:28:59.004Z,68.16
2018-05-17T02:29:25.146Z,67.97
2018-05-17T02:29:51.276Z,68.07
2018-05-17T02:30:17.415Z,68.16
2018-05-17T02:30:43.607Z,67.97
2018-05-17T02:31:09.760Z,68.74
2018-05-17T02:31:35.953Z,68.64
2018-05-17T02:32:02.104Z,67.88
2018-05-17T02:32:28.255Z,68.45
2018-05-17T02:32:54.408Z,68.93
2018-05-17T02:33:20.578Z,68.26
2018-05-17T02:33:46.735Z,67.88
2018-05-17T02:34:12.901Z,67.78
2018-05-17T02:34:39.046Z,68.35
2018-05-17T02:35:05.204Z,67.97
2018-05-17T02:35:31.362Z,68.07
2018-05-17T02:35:57.501Z,68.45
2018-05-17T02:36:23.659Z,68.74
2018-05-17T02:36:49.846Z,68.74
2018-05-17T02:37:16.008Z,68.55
2018-05-17T02:37:42.194Z,69.12
2018-05-17T02:38:08.375Z,69.12
2018-05-17T02:38:34.541Z,69.12
2018-05-17T02:39:00.703Z,69.6
2018-05-17T02:39:26.862Z,69.41
2018-05-17T02:39:53.035Z,69.7
2018-05-17T02:40:19.185Z,69.31
2018-05-17T02:40:45.355Z,69.21
2018-05-17T02:41:11.520Z,68.64
2018-05-17T02:41:37.759Z,69.21
2018-05-17T02:42:03.869Z,68.84
2018-05-17T02:42:30.012Z,68.45
2018-05-17T02:42:56.221Z,68.64
2018-05-17T02:43:22.382Z,68.84
2018-05-17T02:43:48.515Z,68.93
2018-05-17T02:44:14.651Z,68.45
2018-05-17T02:44:40.792Z,68.93
2018-05-17T02:45:06.932Z,68.55
2018-05-17T02:45:33.099Z,68.84
2018-05-17T02:45:59.239Z,69.02
2018-05-17T02:46:25.382Z,69.12
2018-05-17T02:46:51.536Z,69.31
2018-05-17T02:47:17.696Z,68.93
2018-05-17T02:47:43.862Z,68.45
2018-05-17T02:48:10.039Z,68.84
2018-05-17T02:48:36.194Z,68.64
2018-05-17T02:49:02.408Z,69.02
2018-05-17T02:49:28.492Z,68.64
2018-05-17T02:49:54.680Z,68.45
2018-05-17T02:50:20.845Z,68.93
2018-05-17T02:50:47.009Z,69.12
2018-05-17T02:51:13.145Z,68.74
2018-05-17T02:51:39.310Z,69.31
2018-05-17T02:52:05.476Z,69.31
2018-05-17T02:52:31.661Z,69.12
2018-05-17T02:52:57.815Z,68.64
2018-05-17T02:53:23.956Z,68.93
2018-05-17T02:53:50.122Z,68.16
2018-05-17T02:54:16.307Z,68.16
2018-05-17T02:54:42.923Z,68.07
2018-05-17T02:55:09.205Z,68.26
2018-05-17T02:55:35.689Z,68.07
2018-05-17T02:56:02.029Z,68.74
2018-05-17T02:56:28.238Z,68.45
2018-05-17T02:56:54.591Z,68.45
2018-05-17T02:57:20.769Z,67.97
2018-05-17T02:57:47.074Z,67.78
2018-05-17T02:58:13.374Z,67.78
2018-05-17T02:58:39.613Z,67.97
2018-05-17T02:59:05.774Z,68.35
2018-05-17T02:59:31.989Z,68.64
2018-05-17T02:59:58.079Z,68.74
2018-05-17T03:00:24.217Z,68.16
2018-05-17T03:00:50.385Z,67.59
2018-05-17T03:01:16.595Z,67.59
2018-05-17T03:01:42.739Z,68.07
2018-05-17T03:02:08.873Z,68.07
2018-05-17T03:02:35.013Z,67.88
2018-05-17T03:03:01.151Z,67.3
2018-05-17T03:03:27.284Z,67.4
2018-05-17T03:03:53.451Z,68.07
2018-05-17T03:04:19.657Z,67.97
2018-05-17T03:04:45.805Z,68.45
2018-05-17T03:05:11.992Z,68.16
2018-05-17T03:05:38.164Z,67.4
2018-05-17T03:06:04.316Z,67.78
2018-05-17T03:06:30.459Z,67.78
2018-05-17T03:06:56.591Z,67.78
2018-05-17T03:07:22.725Z,67.78
2018-05-17T03:07:48.888Z,67.3
2018-05-17T03:08:15.055Z,66.73
2018-05-17T03:08:41.213Z,67.88
2018-05-17T03:09:07.367Z,66.83
2018-05-17T03:09:33.528Z,67.3
2018-05-17T03:09:59.716Z,66.63
2018-05-17T03:10:25.852Z,66.73
2018-05-17T03:10:51.986Z,66.44
2018-05-17T03:11:18.164Z,67.49
2018-05-17T03:11:44.301Z,66.83
2018-05-17T03:12:10.437Z,67.11
2018-05-17T03:12:36.576Z,67.02
2018-05-17T03:13:02.715Z,66.73
2018-05-17T03:13:28.870Z,66.73
2018-05-17T03:13:55.033Z,66.63
2018-05-17T03:14:21.172Z,66.44
2018-05-17T03:14:47.314Z,65.97
2018-05-17T03:15:13.500Z,66.63
2018-05-17T03:15:39.638Z,66.73
2018-05-17T03:16:05.771Z,66.92
2018-05-17T03:16:31.952Z,66.16
2018-05-17T03:16:58.114Z,66.06
2018-05-17T03:17:24.250Z,66.16
2018-05-17T03:17:50.394Z,66.5
2018-05-17T03:18:16.531Z,66.92
2018-05-17T03:18:42.688Z,66.13
2018-05-17T03:19:08.853Z,66.16
2018-05-17T03:19:34.991Z,66.13
2018-05-17T03:20:01.134Z,66.73
2018-05-17T03:20:27.278Z,65.87
2018-05-17T03:20:53.457Z,66.06
2018-05-17T03:21:19.594Z,65.68
2018-05-17T03:21:45.732Z,65.48
2018-05-17T03:22:11.876Z,65.3
2018-05-17T03:22:38.011Z,65.3
2018-05-17T03:23:04.150Z,65.55
2018-05-17T03:23:30.312Z,65.17
2018-05-17T03:23:56.472Z,65.55
2018-05-17T03:24:22.629Z,65.36
2018-05-17T03:24:48.767Z,66.03
2018-05-17T03:25:14.940Z,65.64
2018-05-17T03:25:41.074Z,65.74
2018-05-17T03:26:07.212Z,65.45
2018-05-17T03:26:33.371Z,65.64
2018-05-17T03:26:59.513Z,65.45
2018-05-17T03:27:25.649Z,65.55
2018-05-17T03:27:51.790Z,66.03
2018-05-17T03:28:17.959Z,66.13
2018-05-17T03:28:44.123Z,66.31
2018-05-17T03:29:10.256Z,66.13
2018-05-17T03:29:36.409Z,66.31
2018-05-17T03:30:02.559Z,66.13
2018-05-17T03:30:28.687Z,66.13
2018-05-17T03:30:54.864Z,66.03
2018-05-17T03:31:21.045Z,66.41
2018-05-17T03:31:47.242Z,66.6
2018-05-17T03:32:13.404Z,66.7
2018-05-17T03:32:39.558Z,66.79
2018-05-17T03:33:05.697Z,66.41
2018-05-17T03:33:31.857Z,66.41
2018-05-17T03:33:58.000Z,67.08
2018-05-17T03:34:24.166Z,66.6
2018-05-17T03:34:50.310Z,66.7
2018-05-17T03:35:16.448Z,66.89
2018-05-17T03:35:42.585Z,66.79
2018-05-17T03:36:08.723Z,66.89
2018-05-17T03:36:34.856Z,66.79
2018-05-17T03:37:01.028Z,66.5
2018-05-17T03:37:27.160Z,67.18
2018-05-17T03:37:53.302Z,66.5
2018-05-17T03:38:19.455Z,66.6
2018-05-17T03:38:45.583Z,66.5
2018-05-17T03:39:11.757Z,66.89
2018-05-17T03:39:37.920Z,66.89
2018-05-17T03:40:04.079Z,66.7
2018-05-17T03:40:30.221Z,66.31
2018-05-17T03:40:56.361Z,66.7
2018-05-17T03:41:22.520Z,66.79
2018-05-17T03:41:48.666Z,66.13
2018-05-17T03:42:14.817Z,66.89
2018-05-17T03:42:40.974Z,66.22
2018-05-17T03:43:07.113Z,66.13
2018-05-17T03:43:33.250Z,66.41
2018-05-17T03:43:59.392Z,66.89
2018-05-17T03:44:25.532Z,65.84
2018-05-17T03:44:51.669Z,66.41
2018-05-17T03:45:17.808Z,66.5
2018-05-17T03:45:43.943Z,66.31
2018-05-17T03:46:10.104Z,66.22
2018-05-17T03:46:36.243Z,66.22
2018-05-17T03:47:02.382Z,66.31
2018-05-17T03:47:28.520Z,66.5
2018-05-17T03:47:54.709Z,66.03
2018-05-17T03:48:20.799Z,66.5
2018-05-17T03:48:46.933Z,66.31
2018-05-17T03:49:13.109Z,65.93
2018-05-17T03:49:39.245Z,66.03
2018-05-17T03:50:05.431Z,66.22
2018-05-17T03:50:31.574Z,66.03
2018-05-17T03:50:57.713Z,66.13
2018-05-17T03:51:23.876Z,66.13
2018-05-17T03:51:50.025Z,66.22
2018-05-17T03:52:16.155Z,66.22
2018-05-17T03:52:42.297Z,66.31
2018-05-17T03:53:08.460Z,66.03
2018-05-17T03:53:34.597Z,66.41
2018-05-17T03:54:00.729Z,66.31
2018-05-17T03:54:26.872Z,66.13
2018-05-17T03:54:53.019Z,66.22
2018-05-17T03:55:19.164Z,66.22
2018-05-17T03:55:45.316Z,65.93
2018-05-17T03:56:11.454Z,66.22
2018-05-17T03:56:37.589Z,65.93
2018-05-17T03:57:03.728Z,65.93
2018-05-17T03:57:29.865Z,66.03
2018-05-17T03:57:56.000Z,65.84
2018-05-17T03:58:22.134Z,66.13
2018-05-17T03:58:48.283Z,66.22
2018-05-17T03:59:14.424Z,66.31
2018-05-17T03:59:40.559Z,66.31
2018-05-17T04:00:06.698Z,66.31
2018-05-17T04:00:32.854Z,66
2018-05-17T04:00:58.997Z,65.8
2018-05-17T04:01:25.147Z,66.85
2018-05-17T04:01:51.274Z,66.76
2018-05-17T04:02:17.408Z,66.47
2018-05-17T04:02:43.548Z,66.47
2018-05-17T04:03:09.682Z,66.7
2018-05-17T04:03:35.825Z,66.5
2018-05-17T04:04:01.987Z,66.56
2018-05-17T04:04:28.121Z,66.5
2018-05-17T04:04:54.257Z,66.6
2018-05-17T04:05:20.392Z,66.99
2018-05-17T04:05:46.537Z,66.6
2018-05-17T04:06:12.679Z,67.08
2018-05-17T04:06:38.838Z,66.7
2018-05-17T04:07:05.000Z,66.99
2018-05-17T04:07:31.134Z,67.24
2018-05-17T04:07:57.272Z,67.36
2018-05-17T04:08:23.417Z,67.08
2018-05-17T04:08:49.594Z,67.55
2018-05-17T04:09:15.734Z,67.65
2018-05-17T04:09:41.875Z,67.27
2018-05-17T04:10:08.015Z,67.84
2018-05-17T04:10:34.150Z,67.84
2018-05-17T04:11:00.287Z,67.75
2018-05-17T04:11:26.420Z,67.65
2018-05-17T04:11:52.557Z,67.65
2018-05-17T04:12:18.694Z,67.18
2018-05-17T04:12:44.839Z,67.55
2018-05-17T04:13:11.031Z,67.94
2018-05-17T04:13:37.168Z,67.94
2018-05-17T04:14:03.309Z,67.71
2018-05-17T04:14:29.501Z,67.62
2018-05-17T04:14:55.664Z,67.91
2018-05-17T04:15:21.852Z,68.1
2018-05-17T04:15:48.010Z,68.29
2018-05-17T04:16:14.153Z,68.1
2018-05-17T04:16:40.317Z,68.29
2018-05-17T04:17:06.460Z,67.81
2018-05-17T04:17:32.588Z,67.71
2018-05-17T04:17:58.730Z,68.1
2018-05-17T04:18:24.864Z,68.04
2018-05-17T04:18:51.004Z,67.84
2018-05-17T04:19:17.139Z,68.13
2018-05-17T04:19:43.277Z,68.13
2018-05-17T04:20:09.444Z,68.38
2018-05-17T04:20:35.586Z,67.65
2018-05-17T04:21:01.729Z,67.71
2018-05-17T04:21:27.880Z,67.62
2018-05-17T04:21:54.047Z,67.91
2018-05-17T04:22:20.185Z,67.75
2018-05-17T04:22:46.328Z,67.46
2018-05-17T04:23:12.484Z,67.52
2018-05-17T04:23:38.623Z,67.33
2018-05-17T04:24:04.765Z,67.24
2018-05-17T04:24:30.935Z,67.24
2018-05-17T04:24:57.072Z,67.46
2018-05-17T04:25:23.214Z,66.76
2018-05-17T04:25:49.379Z,67.24
2018-05-17T04:26:15.541Z,66.79
2018-05-17T04:26:41.683Z,66.38
2018-05-17T04:27:07.843Z,66.76
2018-05-17T04:27:34.610Z,66.66
2018-05-17T04:28:00.770Z,66.76
2018-05-17T04:28:26.910Z,66.76
2018-05-17T04:28:53.072Z,67.08
2018-05-17T04:29:19.384Z,67.24
2018-05-17T04:29:45.517Z,66.99
2018-05-17T04:30:11.654Z,66.41
2018-05-17T04:30:37.794Z,66.66
2018-05-17T04:31:03.932Z,66.38
2018-05-17T04:31:30.073Z,66.99
2018-05-17T04:31:56.214Z,67.27
2018-05-17T04:32:22.356Z,67.46
2018-05-17T04:32:48.491Z,66.79
2018-05-17T04:33:14.645Z,66.79
2018-05-17T04:33:40.783Z,66.89
2018-05-17T04:34:06.930Z,66.5
2018-05-17T04:34:33.059Z,66.89
2018-05-17T04:34:59.223Z,66.79
2018-05-17T04:35:25.358Z,66.79
2018-05-17T04:35:51.507Z,66.5
2018-05-17T04:36:17.669Z,67.27
2018-05-17T04:36:43.830Z,67.36
2018-05-17T04:37:09.988Z,67.36
2018-05-17T04:37:36.155Z,67.84
2018-05-17T04:38:02.343Z,67.55
2018-05-17T04:38:28.490Z,67.75
2018-05-17T04:38:54.651Z,68.13
2018-05-17T04:39:20.800Z,68.23
2018-05-17T04:39:46.931Z,68.13
2018-05-17T04:40:13.075Z,68.7
2018-05-17T04:40:39.238Z,69.37
2018-05-17T04:41:05.392Z,70.14
2018-05-17T04:41:31.539Z,69.27
2018-05-17T04:41:57.732Z,69.66
2018-05-17T04:42:23.868Z,69.09
2018-05-17T04:42:49.999Z,68.61
2018-05-17T04:43:16.147Z,68.8
2018-05-17T04:43:42.284Z,68.64
2018-05-17T04:44:08.420Z,67.94
2018-05-17T04:44:34.556Z,68.04
2018-05-17T04:45:00.696Z,67.97
2018-05-17T04:45:26.830Z,68.23
2018-05-17T04:45:52.976Z,68.64
2018-05-17T04:46:19.117Z,68.84
2018-05-17T04:46:45.273Z,67.88
2018-05-17T04:47:11.505Z,67.97
2018-05-17T04:47:37.559Z,68.16
2018-05-17T04:48:03.720Z,68.26
2018-05-17T04:48:29.866Z,68.93
2018-05-17T04:48:55.988Z,67.4
2018-05-17T04:49:22.127Z,67.59
2018-05-17T04:49:48.268Z,66.73
2018-05-17T04:50:14.401Z,66.54
2018-05-17T04:50:40.542Z,66.54
2018-05-17T04:51:06.678Z,66.35
2018-05-17T04:51:32.818Z,66.44
2018-05-17T04:51:58.958Z,66.73
2018-05-17T04:52:25.116Z,66.63
2018-05-17T04:52:51.261Z,66.63
2018-05-17T04:53:17.407Z,66.16
2018-05-17T04:53:43.559Z,66.25
2018-05-17T04:54:09.699Z,66.25
2018-05-17T04:54:35.858Z,66.25
2018-05-17T04:55:02.012Z,65.87
2018-05-17T04:55:28.166Z,66.25
2018-05-17T04:55:54.334Z,66.25
2018-05-17T04:56:20.493Z,66.92
2018-05-17T04:56:46.627Z,66.92
2018-05-17T04:57:12.765Z,66.16
2018-05-17T04:57:38.906Z,66.67
2018-05-17T04:58:05.070Z,66.09
2018-05-17T04:58:31.217Z,65.9
2018-05-17T04:58:57.348Z,65.52
2018-05-17T04:59:23.493Z,65.9
2018-05-17T04:59:49.658Z,65.14
2018-05-17T05:00:15.804Z,65.52
2018-05-17T05:00:41.942Z,65.61
2018-05-17T05:01:08.084Z,66
2018-05-17T05:01:34.220Z,65.71
2018-05-17T05:02:00.387Z,65.33
2018-05-17T05:02:26.526Z,65.04
2018-05-17T05:02:52.755Z,65.04
2018-05-17T05:03:18.825Z,64.56
2018-05-17T05:03:44.959Z,64.95
2018-05-17T05:04:11.105Z,64.56
2018-05-17T05:04:37.238Z,64.28
2018-05-17T05:05:03.379Z,64.95
2018-05-17T05:05:29.515Z,64.66
2018-05-17T05:05:55.657Z,64.75
2018-05-17T05:06:21.841Z,64.56
2018-05-17T05:06:47.975Z,63.93
2018-05-17T05:07:14.111Z,63.73
2018-05-17T05:07:40.249Z,63.7
2018-05-17T05:08:06.387Z,63.03
2018-05-17T05:08:32.514Z,63.99
2018-05-17T05:08:58.656Z,64.37
2018-05-17T05:09:24.888Z,63.7
2018-05-17T05:09:50.974Z,64.18
2018-05-17T05:10:17.109Z,63.99
2018-05-17T05:10:43.260Z,64.02
2018-05-17T05:11:09.531Z,63.93
2018-05-17T05:11:35.680Z,62.87
2018-05-17T05:12:01.854Z,62.74
2018-05-17T05:12:28.006Z,63.23
2018-05-17T05:12:54.142Z,63.32
2018-05-17T05:13:20.278Z,63.32
2018-05-17T05:13:46.419Z,62.74
2018-05-17T05:14:12.564Z,62.94
2018-05-17T05:14:38.702Z,62.97
2018-05-17T05:15:04.839Z,62.84
2018-05-17T05:15:30.983Z,62.97
2018-05-17T05:15:57.117Z,62.87
2018-05-17T05:16:23.258Z,63.45
2018-05-17T05:16:49.412Z,63.93
2018-05-17T05:17:15.550Z,64.22
2018-05-17T05:17:41.684Z,63.93
2018-05-17T05:18:07.822Z,64.12
2018-05-17T05:18:33.956Z,63.06
2018-05-17T05:19:00.140Z,62.97
2018-05-17T05:19:26.279Z,63.64
2018-05-17T05:19:52.424Z,63.06
2018-05-17T05:20:18.590Z,63.06
2018-05-17T05:20:44.722Z,62.59
2018-05-17T05:21:10.891Z,62.68
2018-05-17T05:21:37.023Z,63.54
2018-05-17T05:22:03.159Z,62.87
2018-05-17T05:22:29.299Z,62.2
2018-05-17T05:22:55.438Z,62.01
2018-05-17T05:23:21.575Z,61.63
2018-05-17T05:23:47.774Z,61.15
2018-05-17T05:24:13.910Z,61.82
2018-05-17T05:24:40.050Z,61.91
2018-05-17T05:25:06.193Z,62.4
2018-05-17T05:25:32.383Z,61.72
2018-05-17T05:25:58.645Z,62.01
2018-05-17T05:26:25.197Z,61.34
2018-05-17T05:26:51.651Z,61.15
2018-05-17T05:27:17.940Z,61.05
2018-05-17T05:27:44.786Z,60.77
2018-05-17T05:28:11.704Z,60.86
2018-05-17T05:28:38.622Z,61.34
2018-05-17T05:29:05.340Z,60.96
2018-05-17T05:29:31.960Z,61.44
2018-05-17T05:29:59.039Z,61.54
2018-05-17T05:30:25.613Z,61.25
2018-05-17T05:30:53.107Z,61.05
2018-05-17T05:31:20.108Z,59.62
2018-05-17T05:31:46.779Z,60.19
2018-05-17T05:32:13.854Z,60.13
2018-05-17T05:32:40.312Z,59.65
2018-05-17T05:33:06.783Z,59.08
2018-05-17T05:33:33.066Z,59.52
2018-05-17T05:33:59.226Z,58.95
2018-05-17T05:34:25.364Z,59.52
2018-05-17T05:34:51.504Z,58.76
2018-05-17T05:35:17.667Z,58.86
2018-05-17T05:35:43.805Z,58.76
2018-05-17T05:36:09.942Z,59.33
2018-05-17T05:36:36.086Z,59.43
2018-05-17T05:37:02.218Z,59.62
2018-05-17T05:37:28.364Z,59.43
2018-05-17T05:37:54.518Z,59.62
2018-05-17T05:38:20.681Z,60.38